createdAt,value
2018-06-05T00:04:25.206Z,19.60
2018-06-05T00:09:54.504Z,19.50
2018-06-05T00:15:23.766Z,19.40
2018-06-05T00:20:53.121Z,19.40
2018-06-05T00:26:23.168Z,19.30
2018-06-05T00:31:52.372Z,19.30
2018-06-05T00:37:21.633Z,19.20
2018-06-05T00:42:50.803Z,19.10
2018-06-05T00:48:20.033Z,19.10
2018-06-05T00:53:49.249Z,19.00
2018-06-05T00:59:18.515Z,19.00
2018-06-05T01:04:47.686Z,18.80
2018-06-05T01:10:17.039Z,18.80
2018-06-05T01:15:46.450Z,18.70
2018-06-05T01:21:15.812Z,18.60
2018-06-05T01:26:45.124Z,18.60
2018-06-05T01:32:14.467Z,18.50
2018-06-05T01:37:43.832Z,18.40
2018-06-05T01:43:13.783Z,18.30
2018-06-05T01:48:43.099Z,18.20
2018-06-05T01:54:12.977Z,18.10
2018-06-05T01:59:42.383Z,18.00
2018-06-05T02:05:11.670Z,18.00
2018-06-05T02:10:41.037Z,17.90
2018-06-05T02:16:10.427Z,17.90
2018-06-05T02:21:39.654Z,17.70
2018-06-05T02:27:08.868Z,17.60
2018-06-05T02:32:38.127Z,17.50
2018-06-05T02:38:07.415Z,17.40
2018-06-05T02:43:36.608Z,17.30
2018-06-05T02:49:05.968Z,17.20
2018-06-05T02:54:35.151Z,17.00
2018-06-05T03:00:04.560Z,16.90
2018-06-05T03:05:33.766Z,16.90
2018-06-05T03:11:02.962Z,16.80
2018-06-05T03:16:32.175Z,16.70
2018-06-05T03:22:01.417Z,16.70
2018-06-05T03:27:30.692Z,16.70
2018-06-05T03:32:59.896Z,16.60
2018-06-05T03:38:29.174Z,16.60
2018-06-05T03:43:58.392Z,16.60
2018-06-05T03:49:27.583Z,16.50
2018-06-05T03:54:56.746Z,16.50
2018-06-05T04:00:26.009Z,16.50
2018-06-05T04:05:55.177Z,16.60
2018-06-05T04:11:24.400Z,16.50
2018-06-05T04:16:53.611Z,16.60
2018-06-05T04:22:22.837Z,16.60
2018-06-05T04:27:52.039Z,16.70
2018-06-05T04:33:22.309Z,16.80
2018-06-05T04:38:52.606Z,16.80
2018-06-05T04:44:23.020Z,17.00
2018-06-05T04:49:52.323Z,17.10
2018-06-05T04:55:22.233Z,17.20
2018-06-05T05:00:51.444Z,17.30
2018-06-05T05:06:20.647Z,17.40
2018-06-05T05:11:50.040Z,17.50
2018-06-05T05:17:19.242Z,17.70
2018-06-05T05:22:48.451Z,18.00
2018-06-05T05:28:18.564Z,18.20
2018-06-05T05:33:49.107Z,18.30
2018-06-05T05:39:18.325Z,18.50
2018-06-05T05:44:47.575Z,18.70
2018-06-05T05:50:16.847Z,19.00
2018-06-05T05:55:46.204Z,19.30
2018-06-05T06:01:15.662Z,19.40
2018-06-05T06:06:44.883Z,19.70
2018-06-05T06:12:14.224Z,20.00
2018-06-05T06:17:43.585Z,20.30
2018-06-05T06:23:12.876Z,20.40
2018-06-05T06:28:42.307Z,20.40
2018-06-05T06:34:11.717Z,20.50
2018-06-05T06:39:40.989Z,20.70
2018-06-05T06:45:10.570Z,21.00
2018-06-05T06:50:39.836Z,21.20
2018-06-05T06:56:09.059Z,21.50
2018-06-05T07:01:38.608Z,21.60
2018-06-05T07:07:07.799Z,21.80
2018-06-05T07:12:36.995Z,22.00
2018-06-05T07:18:06.209Z,22.30
2018-06-05T07:23:35.469Z,22.40
2018-06-05T07:29:05.753Z,22.50
2018-06-05T07:34:34.903Z,22.60
2018-06-05T07:40:04.129Z,22.60
2018-06-05T07:45:33.318Z,22.80
2018-06-05T07:51:02.504Z,23.10
2018-06-05T07:56:31.708Z,23.40
2018-06-05T08:02:00.928Z,23.70
2018-06-05T08:07:30.181Z,23.90
2018-06-05T08:12:59.392Z,24.10
2018-06-05T08:18:28.665Z,24.30
2018-06-05T08:23:57.809Z,24.40
2018-06-05T08:29:26.976Z,24.60
2018-06-05T08:34:56.305Z,24.60
2018-06-05T08:40:25.527Z,24.80
2018-06-05T08:45:54.712Z,24.90
2018-06-05T08:51:23.928Z,25.20
2018-06-05T08:56:53.091Z,25.30
2018-06-05T09:02:22.293Z,25.50
2018-06-05T09:07:51.525Z,25.50
2018-06-05T09:13:20.737Z,25.50
2018-06-05T09:18:49.956Z,25.60
2018-06-05T09:24:19.177Z,25.90
2018-06-05T09:29:48.334Z,26.20
2018-06-05T09:35:17.592Z,26.10
2018-06-05T09:40:46.850Z,26.20
2018-06-05T09:46:16.133Z,26.30
2018-06-05T09:51:45.417Z,26.40
2018-06-05T09:57:14.701Z,26.60
2018-06-05T10:02:44.023Z,26.80
2018-06-05T10:08:13.265Z,26.90
2018-06-05T10:13:42.592Z,27.00
2018-06-05T10:19:11.891Z,27.40
2018-06-05T10:24:41.153Z,27.40
2018-06-05T10:35:39.508Z,26.20
2018-06-05T10:41:08.731Z,25.90
2018-06-05T10:46:38.074Z,25.70
2018-06-05T10:52:07.501Z,26.00
2018-06-05T10:57:36.751Z,26.80
2018-06-05T11:03:05.977Z,27.20
2018-06-05T11:14:04.407Z,27.20
2018-06-05T11:19:33.586Z,27.50
2018-06-05T11:25:02.800Z,27.80
2018-06-05T11:30:31.993Z,28.10
2018-06-05T11:36:01.175Z,28.40
2018-06-05T11:41:30.372Z,28.60
2018-06-05T11:46:59.765Z,28.80
2018-06-05T11:52:28.886Z,28.90
2018-06-05T11:57:58.083Z,29.00
2018-06-05T12:03:27.325Z,29.30
2018-06-05T12:08:56.535Z,29.40
2018-06-05T12:14:25.817Z,29.50
2018-06-05T12:19:55.043Z,29.50
2018-06-05T12:25:24.288Z,29.60
2018-06-05T12:30:53.524Z,29.70
2018-06-05T12:36:22.735Z,29.40
2018-06-05T12:41:51.966Z,29.40
2018-06-05T12:47:21.282Z,29.30
2018-06-05T12:52:50.619Z,29.20
2018-06-05T12:58:19.884Z,29.10
2018-06-05T13:03:49.128Z,29.00
2018-06-05T13:09:19.262Z,29.20
2018-06-05T13:14:54.432Z,29.20
2018-06-05T13:20:23.608Z,29.30
2018-06-05T13:25:52.840Z,29.20
2018-06-05T13:31:22.085Z,29.20
2018-06-05T13:36:51.303Z,29.20
2018-06-05T13:42:20.519Z,29.10
2018-06-05T13:47:49.786Z,29.20
2018-06-05T13:53:18.987Z,29.20
2018-06-05T13:58:48.274Z,29.20
2018-06-05T14:04:17.563Z,29.10
2018-06-05T14:09:46.780Z,28.90
2018-06-05T14:15:16.067Z,29.10
2018-06-05T14:20:45.728Z,29.00
2018-06-05T14:26:14.960Z,29.00
2018-06-05T14:31:44.392Z,28.90
2018-06-05T14:37:13.853Z,28.80
2018-06-05T14:42:43.192Z,28.90
2018-06-05T14:48:12.692Z,28.90
2018-06-05T14:53:42.157Z,29.00
2018-06-05T14:59:11.741Z,33.00
2018-06-05T15:04:41.182Z,35.30
2018-06-05T15:10:10.691Z,32.90
2018-06-05T15:15:40.382Z,31.50
2018-06-05T15:21:09.704Z,31.10
2018-06-05T15:26:38.906Z,30.50
2018-06-05T15:32:08.231Z,29.90
2018-06-05T15:37:38.574Z,29.40
2018-06-05T15:43:07.850Z,29.00
2018-06-05T15:48:37.116Z,28.60
2018-06-05T15:54:06.664Z,28.50
2018-06-05T15:59:36.002Z,28.30
2018-06-05T16:05:06.238Z,28.20
2018-06-05T16:10:35.417Z,28.90
2018-06-05T16:16:04.620Z,28.40
2018-06-05T16:21:33.884Z,28.10
2018-06-05T16:27:03.143Z,28.00
2018-06-05T16:32:32.401Z,27.80
2018-06-05T16:38:02.323Z,27.70
2018-06-05T16:43:31.628Z,27.50
2018-06-05T16:49:02.200Z,27.50
2018-06-05T16:54:31.500Z,27.40
2018-06-05T17:00:00.795Z,27.30
2018-06-05T17:05:33.746Z,27.40
2018-06-05T17:11:06.650Z,27.20
2018-06-05T17:16:35.934Z,27.20
2018-06-05T17:22:05.249Z,27.10
2018-06-05T17:27:34.698Z,27.00
2018-06-05T17:33:10.072Z,26.70
2018-06-05T17:38:40.080Z,26.80
2018-06-05T17:44:09.774Z,26.60
2018-06-05T17:49:39.743Z,26.50
2018-06-05T17:55:09.314Z,26.40
2018-06-05T18:00:38.664Z,26.30
2018-06-05T18:06:07.905Z,26.20
2018-06-05T18:11:37.368Z,26.10
2018-06-05T18:17:06.905Z,25.90
2018-06-05T18:22:36.123Z,25.80
2018-06-05T18:28:05.335Z,25.70
2018-06-05T18:33:34.588Z,25.60
2018-06-05T18:39:04.973Z,25.50
2018-06-05T18:44:34.512Z,25.30
2018-06-05T18:50:05.805Z,25.20
2018-06-05T18:55:35.120Z,25.10
2018-06-05T19:01:04.456Z,24.90
2018-06-05T19:06:33.749Z,24.80
2018-06-05T19:12:02.979Z,24.60
2018-06-05T19:17:32.235Z,24.50
2018-06-05T19:23:01.488Z,24.30
2018-06-05T19:28:30.764Z,24.30
2018-06-05T19:33:59.991Z,24.10
2018-06-05T19:39:29.250Z,23.90
2018-06-05T19:44:58.528Z,23.80
2018-06-05T19:50:27.777Z,23.70
2018-06-05T19:55:57.105Z,23.50
2018-06-05T20:01:26.343Z,23.30
2018-06-05T20:06:55.683Z,23.20
2018-06-05T20:12:25.051Z,23.10
2018-06-05T20:17:54.278Z,22.90
2018-06-05T20:23:23.496Z,22.70
2018-06-05T20:28:52.756Z,22.60
2018-06-05T20:34:22.238Z,22.50
2018-06-05T20:39:51.500Z,22.30
2018-06-05T20:45:21.202Z,22.20
2018-06-05T20:50:50.424Z,22.20
2018-06-05T20:56:19.609Z,22.10
2018-06-05T21:01:48.893Z,22.00
2018-06-05T21:07:18.096Z,22.00
2018-06-05T21:12:47.367Z,22.00
2018-06-05T21:18:16.701Z,21.90
2018-06-05T21:23:46.082Z,21.80
2018-06-05T21:29:15.463Z,21.80
2018-06-05T21:34:45.391Z,21.70
2018-06-05T21:40:14.767Z,21.60
2018-06-05T21:45:44.121Z,21.50
2018-06-05T21:51:13.513Z,21.80
2018-06-05T21:56:43.810Z,21.50
2018-06-05T22:02:13.203Z,21.40
2018-06-05T22:07:42.595Z,21.30
2018-06-05T22:13:11.931Z,21.10
2018-06-05T22:18:41.586Z,20.90
2018-06-05T22:24:11.457Z,20.80
2018-06-05T22:29:40.900Z,20.60
2018-06-05T22:35:10.371Z,20.50
2018-06-05T22:40:39.604Z,20.30
2018-06-05T22:46:08.900Z,20.20
2018-06-05T22:51:38.167Z,20.10
2018-06-05T22:57:07.504Z,19.90
2018-06-05T23:02:36.719Z,19.80
2018-06-05T23:08:06.115Z,19.80
2018-06-05T23:13:35.345Z,19.70
2018-06-05T23:19:04.491Z,19.60
2018-06-05T23:24:33.712Z,19.50
2018-06-05T23:30:02.941Z,19.50
2018-06-05T23:35:32.395Z,19.40
2018-06-05T23:41:01.672Z,19.30
2018-06-05T23:46:30.897Z,19.30
2018-06-05T23:52:00.122Z,19.20
2018-06-05T23:57:29.316Z,19.10
